createdAt,value
2023-03-04T00:02:03.308Z,55.53
2023-03-04T00:04:30.164Z,58.50
2023-03-04T00:06:57.059Z,54.55
2023-03-04T00:09:23.774Z,58.47
2023-03-04T00:11:50.440Z,59.38
2023-03-04T00:14:17.240Z,56.85
2023-03-04T00:16:44.125Z,56.67
2023-03-04T00:19:11.594Z,65.35
2023-03-04T00:21:38.428Z,57.35
2023-03-04T00:24:05.414Z,60.60
2023-03-04T00:26:33.949Z,59.35
2023-03-04T00:29:00.676Z,63.08
2023-03-04T00:31:27.441Z,60.67
2023-03-04T00:33:55.693Z,59.38
2023-03-04T00:36:22.371Z,59.03
2023-03-04T00:38:49.140Z,57.63
2023-03-04T00:41:15.877Z,52.95
2023-03-04T00:43:42.658Z,58.90
2023-03-04T00:46:09.425Z,62.13
2023-03-04T00:48:36.264Z,58.58
2023-03-04T00:51:03.309Z,54.90
2023-03-04T00:53:30.021Z,59.25
2023-03-04T00:55:56.872Z,54.53
2023-03-04T00:58:23.565Z,57.15
2023-03-04T01:00:51.235Z,64.75
2023-03-04T01:03:18.678Z,61.72
2023-03-04T01:05:45.411Z,54.15
2023-03-04T01:08:12.081Z,61.45
2023-03-04T01:10:38.848Z,58.78
2023-03-04T01:13:05.962Z,61.47
2023-03-04T01:15:32.725Z,60.80
2023-03-04T01:17:59.551Z,60.90
2023-03-04T01:20:26.361Z,60.90
2023-03-04T01:22:53.146Z,58.22
2023-03-04T01:25:19.919Z,59.22
2023-03-04T01:27:46.609Z,54.60
2023-03-04T01:30:14.449Z,62.58
2023-03-04T01:32:41.535Z,61.13
2023-03-04T01:35:09.652Z,61.92
2023-03-04T01:37:36.389Z,67.13
2023-03-04T01:40:03.659Z,59.22
2023-03-04T01:42:34.093Z,57.38
2023-03-04T01:45:01.164Z,63.05
2023-03-04T01:47:32.356Z,60.08
2023-03-04T01:50:01.705Z,55.85
2023-03-04T01:52:28.896Z,56.47
2023-03-04T01:54:55.889Z,55.97
2023-03-04T01:57:26.021Z,60.95
2023-03-04T02:00:30.992Z,62.00
2023-03-04T02:03:11.407Z,56.65
2023-03-04T02:05:41.037Z,55.45
2023-03-04T02:08:09.234Z,57.22
2023-03-04T02:10:36.945Z,61.33
2023-03-04T02:13:25.553Z,64.10
2023-03-04T02:15:52.277Z,62.75
2023-03-04T02:18:21.401Z,59.05
2023-03-04T02:21:04.259Z,59.63
2023-03-04T02:23:37.894Z,58.38
2023-03-04T02:26:20.622Z,59.65
2023-03-04T02:28:52.930Z,60.88
2023-03-04T02:31:25.329Z,59.70
2023-03-04T02:33:54.280Z,66.43
2023-03-04T02:36:22.089Z,64.60
2023-03-04T02:38:51.519Z,66.00
2023-03-04T02:41:23.140Z,58.60
2023-03-04T02:43:52.334Z,66.53
2023-03-04T02:46:19.118Z,58.65
2023-03-04T02:48:46.043Z,58.13
2023-03-04T02:51:13.059Z,59.65
2023-03-04T02:53:39.828Z,57.25
2023-03-04T02:56:07.104Z,63.15
2023-03-04T02:58:38.346Z,64.22
2023-03-04T03:01:07.060Z,65.68
2023-03-04T03:03:33.835Z,61.75
2023-03-04T03:06:00.692Z,59.53
2023-03-04T03:08:27.558Z,57.95
2023-03-04T03:10:54.517Z,57.22
2023-03-04T03:13:22.624Z,61.50
2023-03-04T03:15:50.795Z,56.95
2023-03-04T03:18:17.641Z,56.28
2023-03-04T03:20:44.434Z,56.40
2023-03-04T03:23:11.231Z,58.80
2023-03-04T03:25:38.088Z,56.35
2023-03-04T03:28:05.933Z,57.65
2023-03-04T03:30:32.733Z,55.45
2023-03-04T03:32:59.498Z,50.67
2023-03-04T03:35:26.293Z,57.88
2023-03-04T03:37:53.056Z,53.38
2023-03-04T03:40:19.812Z,52.08
2023-03-04T03:42:46.671Z,55.88
2023-03-04T03:45:13.457Z,48.75
2023-03-04T03:47:40.161Z,57.42
2023-03-04T03:50:07.546Z,49.10
2023-03-04T03:52:34.422Z,46.45
2023-03-04T03:55:02.189Z,45.40
2023-03-04T03:57:30.476Z,41.80
2023-03-04T03:59:57.394Z,47.90
2023-03-04T04:02:24.421Z,44.25
2023-03-04T04:04:51.342Z,42.97
2023-03-04T04:07:18.264Z,47.47
2023-03-04T04:09:45.064Z,42.53
2023-03-04T04:12:14.903Z,36.83
2023-03-04T04:14:41.710Z,40.35
2023-03-04T04:17:08.800Z,35.53
2023-03-04T04:19:35.651Z,41.05
2023-03-04T04:22:03.293Z,40.33
2023-03-04T04:24:30.227Z,40.42
2023-03-04T04:26:57.509Z,38.95
2023-03-04T04:29:24.396Z,40.90
2023-03-04T04:31:51.321Z,36.92
2023-03-04T04:34:18.084Z,37.28
2023-03-04T04:36:44.831Z,39.75
2023-03-04T04:39:11.605Z,38.42
2023-03-04T04:41:40.939Z,38.72
2023-03-04T04:44:08.081Z,35.50
2023-03-04T04:46:35.011Z,37.95
2023-03-04T04:49:02.004Z,32.65
2023-03-04T04:51:29.038Z,34.60
2023-03-04T04:53:55.886Z,32.92
2023-03-04T04:56:26.389Z,34.88
2023-03-04T04:58:58.787Z,36.40
2023-03-04T05:01:26.105Z,33.00
2023-03-04T05:03:55.803Z,35.85
2023-03-04T05:06:24.270Z,33.92
2023-03-04T05:08:51.861Z,32.30
2023-03-04T05:11:19.673Z,34.75
2023-03-04T05:13:47.120Z,34.90
2023-03-04T05:16:14.701Z,38.20
2023-03-04T05:18:42.025Z,38.40
2023-03-04T05:21:08.972Z,34.92
2023-03-04T05:23:38.441Z,35.97
2023-03-04T05:26:06.527Z,41.15
2023-03-04T05:28:35.189Z,45.03
2023-03-04T05:31:02.005Z,40.97
2023-03-04T05:33:28.969Z,46.00
2023-03-04T05:35:55.776Z,42.33
2023-03-04T05:38:23.102Z,39.40
2023-03-04T05:40:50.392Z,46.05
2023-03-04T05:43:17.474Z,47.25
2023-03-04T05:45:44.253Z,39.40
2023-03-04T05:48:11.469Z,38.38
2023-03-04T05:50:38.235Z,39.63
2023-03-04T05:53:04.955Z,37.10
2023-03-04T05:55:31.738Z,37.15
2023-03-04T05:57:58.758Z,40.40
2023-03-04T06:00:26.234Z,38.63
2023-03-04T06:02:53.175Z,37.67
2023-03-04T06:05:20.422Z,34.15
2023-03-04T06:07:47.714Z,37.15
2023-03-04T06:10:16.804Z,33.20
2023-03-04T06:12:43.914Z,35.17
2023-03-04T06:15:11.955Z,34.53
2023-03-04T06:17:42.026Z,30.40
2023-03-04T06:20:10.941Z,29.42
2023-03-04T06:22:37.684Z,27.98
2023-03-04T06:25:06.312Z,29.58
2023-03-04T06:27:33.137Z,30.10
2023-03-04T06:30:02.058Z,29.75
2023-03-04T06:32:29.412Z,30.50
2023-03-04T06:34:56.360Z,31.13
2023-03-04T06:37:23.409Z,28.85
2023-03-04T06:39:50.499Z,31.15
2023-03-04T06:42:17.240Z,28.52
2023-03-04T06:44:43.945Z,28.52
2023-03-04T06:47:10.808Z,28.02
2023-03-04T06:49:37.591Z,31.60
2023-03-04T06:52:04.474Z,28.98
2023-03-04T06:54:31.319Z,28.92
2023-03-04T06:56:58.060Z,28.17
2023-03-04T06:59:24.976Z,31.42
2023-03-04T07:01:51.654Z,25.75
2023-03-04T07:04:18.571Z,30.45
2023-03-04T07:06:45.344Z,27.45
2023-03-04T07:09:12.070Z,31.63
2023-03-04T07:11:38.845Z,33.83
2023-03-04T07:14:05.534Z,35.58
2023-03-04T07:16:32.453Z,31.90
2023-03-04T07:18:59.407Z,32.00
2023-03-04T07:21:26.722Z,30.45
2023-03-04T07:23:53.568Z,33.65
2023-03-04T07:26:20.915Z,32.13
2023-03-04T07:28:47.662Z,40.78
2023-03-04T07:31:25.344Z,36.75
2023-03-04T07:33:52.267Z,31.83
2023-03-04T07:36:20.080Z,38.65
2023-03-04T07:38:48.527Z,39.83
2023-03-04T07:41:17.719Z,38.85
2023-03-04T07:43:45.096Z,34.58
2023-03-04T07:46:12.451Z,39.90
2023-03-04T07:48:39.688Z,40.35
2023-03-04T07:51:10.763Z,38.17
2023-03-04T07:53:38.782Z,40.80
2023-03-04T07:56:06.607Z,40.55
2023-03-04T07:58:33.615Z,38.05
2023-03-04T08:01:00.390Z,35.60
2023-03-04T08:03:28.779Z,37.55
2023-03-04T08:05:55.516Z,41.42
2023-03-04T08:08:22.828Z,37.88
2023-03-04T08:10:49.494Z,39.33
2023-03-04T08:13:16.238Z,43.35
2023-03-04T08:15:43.611Z,49.45
2023-03-04T08:18:10.451Z,42.28
2023-03-04T08:20:37.234Z,39.75
2023-03-04T08:23:04.281Z,38.40
2023-03-04T08:25:31.042Z,33.90
2023-03-04T08:27:58.779Z,40.30
2023-03-04T08:30:25.484Z,43.13
2023-03-04T08:32:52.247Z,39.85
2023-03-04T08:35:19.039Z,39.70
2023-03-04T08:37:47.078Z,40.33
2023-03-04T08:40:14.753Z,42.47
2023-03-04T08:42:42.697Z,44.00
2023-03-04T08:45:10.499Z,42.33
2023-03-04T08:47:37.757Z,42.88
2023-03-04T08:50:06.426Z,46.83
2023-03-04T08:52:33.430Z,43.67
2023-03-04T08:55:00.387Z,39.60
2023-03-04T08:57:31.881Z,45.95
2023-03-04T08:59:58.569Z,42.13
2023-03-04T09:02:25.292Z,46.60
2023-03-04T09:04:52.070Z,43.85
2023-03-04T09:07:18.936Z,45.25
2023-03-04T09:09:45.712Z,45.47
2023-03-04T09:12:12.507Z,42.63
2023-03-04T09:14:39.215Z,49.25
2023-03-04T09:17:06.370Z,42.28
2023-03-04T09:19:33.211Z,40.85
2023-03-04T09:21:59.982Z,45.30
2023-03-04T09:24:27.143Z,48.63
2023-03-04T09:26:55.159Z,45.55
2023-03-04T09:29:22.331Z,44.72
2023-03-04T09:31:49.122Z,45.25
2023-03-04T09:34:15.901Z,43.20
2023-03-04T09:36:42.691Z,43.03
2023-03-04T09:39:09.489Z,47.33
2023-03-04T09:41:53.174Z,43.58
2023-03-04T09:44:31.026Z,41.53
2023-03-04T09:47:04.384Z,44.70
2023-03-04T09:49:32.048Z,43.20
2023-03-04T09:52:18.310Z,41.92
2023-03-04T09:54:47.899Z,43.97
2023-03-04T09:57:42.583Z,44.38
2023-03-04T10:00:20.000Z,44.80
2023-03-04T10:03:28.589Z,39.35
2023-03-04T10:06:02.936Z,47.75
2023-03-04T10:08:50.691Z,42.38
2023-03-04T10:11:37.719Z,39.00
2023-03-04T10:14:12.526Z,39.53
2023-03-04T10:16:54.222Z,40.05
2023-03-04T10:19:43.772Z,38.95
2023-03-04T10:22:47.038Z,36.33
2023-03-04T10:25:20.980Z,45.92
2023-03-04T10:28:17.604Z,40.95
2023-03-04T10:31:10.085Z,52.45
2023-03-04T10:33:39.379Z,37.67
2023-03-04T10:36:30.233Z,35.55
2023-03-04T10:39:10.915Z,40.67
2023-03-04T10:41:37.818Z,42.58
2023-03-04T10:44:10.075Z,38.42
2023-03-04T10:46:41.105Z,37.95
2023-03-04T10:49:10.061Z,39.30
2023-03-04T10:51:45.508Z,38.22
2023-03-04T10:54:35.271Z,41.20
2023-03-04T10:57:05.583Z,40.50
2023-03-04T10:59:35.454Z,44.03
2023-03-04T11:02:22.385Z,38.00
2023-03-04T11:04:53.741Z,38.95
2023-03-04T11:07:22.801Z,39.67
2023-03-04T11:09:49.783Z,34.90
2023-03-04T11:12:20.177Z,39.33
2023-03-04T11:14:52.399Z,31.90
2023-03-04T11:17:42.011Z,35.13
2023-03-04T11:20:29.730Z,31.38
2023-03-04T11:22:59.945Z,34.83
2023-03-04T11:25:40.863Z,32.30
2023-03-04T11:28:36.566Z,26.92
2023-03-04T11:31:31.538Z,29.17
2023-03-04T11:34:28.620Z,28.63
2023-03-04T11:37:01.966Z,32.13
2023-03-04T11:39:56.810Z,27.23
2023-03-04T11:42:32.657Z,31.98
2023-03-04T11:45:00.632Z,24.15
2023-03-04T11:47:44.193Z,25.85
2023-03-04T11:53:00.576Z,25.52
2023-03-04T11:55:45.744Z,26.88
2023-03-04T11:58:27.435Z,24.80
2023-03-04T12:00:56.824Z,25.38
2023-03-04T12:03:29.266Z,30.13
2023-03-04T12:06:28.392Z,24.48
2023-03-04T12:09:08.884Z,23.42
2023-03-04T12:12:02.965Z,23.13
2023-03-04T12:14:29.675Z,20.27
2023-03-04T12:17:22.723Z,22.08
2023-03-04T12:20:02.661Z,20.25
2023-03-04T12:22:44.409Z,21.17
2023-03-04T12:25:15.700Z,22.52
2023-03-04T12:28:21.260Z,20.10
2023-03-04T12:31:03.963Z,18.45
2023-03-04T12:33:55.443Z,24.63
2023-03-04T12:37:00.239Z,17.70
2023-03-04T12:40:13.404Z,20.77
2023-03-04T12:43:14.966Z,15.15
2023-03-04T12:45:44.819Z,21.30
2023-03-04T12:48:20.284Z,15.98
2023-03-04T12:51:17.479Z,17.00
2023-03-04T12:53:58.446Z,15.00
2023-03-04T12:56:39.109Z,14.00
2023-03-04T12:59:07.980Z,12.15
2023-03-04T13:01:41.823Z,16.42
2023-03-04T13:04:12.762Z,15.82
2023-03-04T13:07:08.862Z,14.90
2023-03-04T13:09:58.890Z,10.43
2023-03-04T13:12:25.970Z,12.48
2023-03-04T13:15:07.895Z,16.65
2023-03-04T13:17:43.855Z,9.18
2023-03-04T13:20:41.417Z,11.50
2023-03-04T13:23:13.879Z,12.70
2023-03-04T13:25:56.965Z,12.85
2023-03-04T13:28:24.700Z,12.90
2023-03-04T13:30:59.433Z,17.73
2023-03-04T13:33:26.122Z,14.40
2023-03-04T13:36:04.317Z,16.20
2023-03-04T13:38:31.249Z,18.38
2023-03-04T13:41:14.043Z,19.70
2023-03-04T13:44:32.004Z,21.52
2023-03-04T13:47:07.310Z,23.17
2023-03-04T13:49:34.673Z,19.65
2023-03-04T13:52:47.715Z,21.05
2023-03-04T13:55:33.278Z,24.10
2023-03-04T13:58:00.231Z,25.08
2023-03-04T14:00:28.801Z,25.30
2023-03-04T14:02:55.604Z,26.38
2023-03-04T14:05:22.646Z,26.27
2023-03-04T14:07:49.389Z,26.83
2023-03-04T14:10:24.859Z,26.20
2023-03-04T14:12:55.533Z,26.05
2023-03-04T14:15:26.556Z,27.58
2023-03-04T14:18:02.080Z,25.02
2023-03-04T14:20:33.988Z,25.27
2023-03-04T14:23:03.216Z,27.75
2023-03-04T14:25:32.712Z,25.40
2023-03-04T14:28:16.778Z,27.73
2023-03-04T14:30:51.423Z,29.15
2023-03-04T14:33:29.926Z,28.77
2023-03-04T14:36:00.236Z,27.45
2023-03-04T14:38:32.065Z,29.17
2023-03-04T14:41:10.433Z,26.10
2023-03-04T14:43:47.119Z,26.80
2023-03-04T14:46:19.121Z,25.40
2023-03-04T14:48:52.718Z,25.63
2023-03-04T14:51:42.446Z,25.88
2023-03-04T14:54:36.588Z,24.38
2023-03-04T14:57:25.987Z,24.17
2023-03-04T14:59:53.876Z,25.38
2023-03-04T15:02:33.890Z,25.13
2023-03-04T15:05:17.025Z,28.17
2023-03-04T15:10:13.149Z,26.60
2023-03-04T15:12:39.899Z,23.60
2023-03-04T15:15:39.874Z,25.27
2023-03-04T15:18:26.541Z,25.60
2023-03-04T15:20:58.018Z,23.50
2023-03-04T15:23:25.634Z,26.85
2023-03-04T15:25:58.166Z,19.90
2023-03-04T15:28:25.829Z,23.42
2023-03-04T15:30:53.216Z,25.52
2023-03-04T15:33:21.262Z,23.33
2023-03-04T15:36:02.497Z,27.73
2023-03-04T15:38:30.452Z,25.88
2023-03-04T15:40:59.696Z,27.20
2023-03-04T15:43:27.034Z,25.83
2023-03-04T15:45:54.386Z,23.27
2023-03-04T15:48:21.726Z,22.10
2023-03-04T15:51:00.675Z,22.23
2023-03-04T15:53:40.916Z,24.52
2023-03-04T15:56:15.188Z,25.58
2023-03-04T15:58:43.256Z,23.70
2023-03-04T16:01:14.937Z,21.85
2023-03-04T16:03:41.717Z,21.75
2023-03-04T16:06:18.797Z,21.63
2023-03-04T16:08:46.449Z,20.60
2023-03-04T16:11:25.531Z,22.30
2023-03-04T16:13:52.519Z,22.42
2023-03-04T16:16:20.178Z,17.38
2023-03-04T16:18:46.966Z,18.45
2023-03-04T16:21:17.200Z,20.10
2023-03-04T16:23:47.098Z,17.90
2023-03-04T16:26:17.734Z,17.45
2023-03-04T16:28:44.716Z,20.80
2023-03-04T16:31:13.749Z,19.10
2023-03-04T16:33:40.731Z,18.10
2023-03-04T16:36:23.834Z,17.88
2023-03-04T16:38:51.926Z,19.55
2023-03-04T16:41:26.132Z,17.60
2023-03-04T16:43:53.528Z,19.13
2023-03-04T16:46:21.900Z,20.48
2023-03-04T16:48:48.968Z,19.05
2023-03-04T16:51:20.898Z,19.77
2023-03-04T16:53:56.493Z,17.10
2023-03-04T16:56:23.853Z,14.52
2023-03-04T16:58:50.689Z,16.40
2023-03-04T17:01:28.928Z,17.55
2023-03-04T17:03:56.775Z,17.85
2023-03-04T17:06:25.048Z,17.30
2023-03-04T17:08:52.161Z,24.10
2023-03-04T17:11:23.746Z,18.33
2023-03-04T17:13:51.092Z,18.05
2023-03-04T17:16:18.724Z,18.40
2023-03-04T17:18:46.212Z,20.92
2023-03-04T17:21:16.342Z,19.25
2023-03-04T17:23:43.063Z,19.83
2023-03-04T17:26:09.887Z,18.90
2023-03-04T17:28:36.907Z,16.42
2023-03-04T17:31:13.114Z,17.50
2023-03-04T17:33:40.065Z,18.25
2023-03-04T17:36:08.900Z,19.02
2023-03-04T17:38:37.688Z,16.73
2023-03-04T17:41:06.060Z,17.90
2023-03-04T17:43:32.793Z,15.05
2023-03-04T17:46:07.801Z,16.80
2023-03-04T17:48:34.895Z,14.63
2023-03-04T17:51:02.052Z,19.83
2023-03-04T17:53:30.074Z,13.68
2023-03-04T17:56:01.840Z,17.15
2023-03-04T17:58:30.660Z,15.77
2023-03-04T18:01:19.014Z,17.60
2023-03-04T18:03:46.134Z,16.60
2023-03-04T18:06:12.942Z,14.88
2023-03-04T18:08:39.600Z,12.40
2023-03-04T18:11:06.548Z,12.68
2023-03-04T18:13:33.399Z,15.38
2023-03-04T18:16:00.251Z,12.70
2023-03-04T18:18:27.003Z,15.18
2023-03-04T18:21:00.613Z,14.10
2023-03-04T18:23:28.661Z,18.35
2023-03-04T18:25:56.199Z,12.65
2023-03-04T18:28:23.225Z,15.00
2023-03-04T18:30:54.292Z,17.25
2023-03-04T18:33:21.578Z,14.30
2023-03-04T18:35:48.437Z,13.05
2023-03-04T18:38:15.340Z,13.23
2023-03-04T18:40:43.264Z,12.63
2023-03-04T18:43:10.090Z,14.25
2023-03-04T18:45:36.864Z,13.95
2023-03-04T18:48:04.388Z,12.10
2023-03-04T18:50:31.116Z,13.90
2023-03-04T18:52:58.279Z,13.20
2023-03-04T18:55:25.111Z,16.25
2023-03-04T18:57:54.883Z,15.15
2023-03-04T19:00:24.085Z,15.05
2023-03-04T19:02:56.016Z,16.65
2023-03-04T19:05:28.966Z,14.43
2023-03-04T19:07:55.974Z,17.08
2023-03-04T19:10:23.802Z,18.90
2023-03-04T19:12:50.728Z,15.27
2023-03-04T19:15:18.414Z,15.85
2023-03-04T19:17:46.182Z,15.88
2023-03-04T19:20:14.010Z,19.42
2023-03-04T19:22:40.859Z,18.73
2023-03-04T19:25:08.248Z,16.60
2023-03-04T19:27:35.136Z,16.95
2023-03-04T19:30:02.190Z,15.32
2023-03-04T19:32:29.568Z,16.67
2023-03-04T19:34:56.300Z,16.40
2023-03-04T19:37:23.065Z,15.32
2023-03-04T19:39:50.384Z,15.07
2023-03-04T19:42:17.282Z,16.98
2023-03-04T19:44:45.108Z,16.55
2023-03-04T19:47:12.049Z,15.90
2023-03-04T19:49:38.778Z,20.88
2023-03-04T19:52:05.776Z,15.38
2023-03-04T19:54:33.248Z,13.98
2023-03-04T19:57:00.236Z,16.88
2023-03-04T19:59:27.012Z,16.50
2023-03-04T20:01:54.230Z,17.77
2023-03-04T20:04:21.949Z,15.05
2023-03-04T20:06:50.856Z,14.52
2023-03-04T20:09:18.464Z,14.02
2023-03-04T20:11:57.313Z,17.73
2023-03-04T20:14:25.211Z,16.30
2023-03-04T20:16:51.932Z,16.15
2023-03-04T20:19:18.641Z,16.05
2023-03-04T20:21:45.385Z,14.68
2023-03-04T20:24:13.096Z,18.58
2023-03-04T20:26:39.815Z,16.60
2023-03-04T20:29:06.563Z,12.93
2023-03-04T20:31:38.428Z,17.38
2023-03-04T20:34:06.329Z,13.50
2023-03-04T20:36:34.575Z,14.57
2023-03-04T20:39:02.723Z,15.93
2023-03-04T20:41:30.456Z,18.10
2023-03-04T20:43:57.311Z,15.80
2023-03-04T20:46:43.284Z,16.50
2023-03-04T20:49:13.335Z,15.68
2023-03-04T20:51:40.710Z,14.38
2023-03-04T20:54:08.179Z,14.27
2023-03-04T20:56:35.688Z,16.05
2023-03-04T20:59:04.480Z,16.92
2023-03-04T21:01:31.770Z,15.43
2023-03-04T21:03:59.929Z,13.48
2023-03-04T21:06:28.521Z,16.85
2023-03-04T21:08:56.128Z,15.77
2023-03-04T21:11:26.070Z,16.75
2023-03-04T21:13:56.302Z,13.07
2023-03-04T21:16:28.013Z,17.40
2023-03-04T21:18:55.151Z,19.13
2023-03-04T21:21:26.903Z,16.58
2023-03-04T21:23:55.089Z,17.73
2023-03-04T21:26:22.792Z,15.10
2023-03-04T21:28:50.975Z,15.43
2023-03-04T21:31:22.306Z,18.27
2023-03-04T21:33:49.547Z,15.80
2023-03-04T21:36:16.411Z,15.38
2023-03-04T21:38:44.129Z,15.57
2023-03-04T21:41:16.096Z,14.25
2023-03-04T21:43:43.227Z,16.70
2023-03-04T21:46:10.444Z,14.70
2023-03-04T21:48:37.385Z,18.65
2023-03-04T21:51:09.286Z,15.90
2023-03-04T21:53:36.582Z,15.43
2023-03-04T21:56:04.848Z,14.45
2023-03-04T21:58:35.080Z,15.25
2023-03-04T22:01:09.198Z,14.45
2023-03-04T22:03:36.012Z,15.68
2023-03-04T22:06:06.117Z,15.02
2023-03-04T22:08:32.875Z,13.52
2023-03-04T22:11:04.466Z,11.80
2023-03-04T22:13:31.373Z,16.02
2023-03-04T22:15:58.985Z,16.45
2023-03-04T22:18:26.417Z,14.60
2023-03-04T22:20:58.889Z,15.18
2023-03-04T22:23:25.645Z,13.17
2023-03-04T22:25:52.369Z,13.45
2023-03-04T22:28:19.085Z,12.93
2023-03-04T22:30:45.835Z,12.20
2023-03-04T22:33:12.632Z,15.20
2023-03-04T22:35:42.613Z,14.82
2023-03-04T22:38:09.324Z,14.30
2023-03-04T22:40:36.058Z,15.57
2023-03-04T22:43:02.726Z,12.55
2023-03-04T22:45:31.140Z,13.45
2023-03-04T22:47:57.885Z,16.40
2023-03-04T22:50:25.061Z,13.15
2023-03-04T22:52:52.033Z,12.98
2023-03-04T22:55:20.744Z,12.52
2023-03-04T22:57:47.879Z,12.85
2023-03-04T23:00:17.647Z,13.55
2023-03-04T23:02:59.783Z,17.85
2023-03-04T23:05:26.645Z,12.90
2023-03-04T23:07:53.751Z,15.73
2023-03-04T23:10:25.202Z,26.65
2023-03-04T23:12:52.694Z,14.93
2023-03-04T23:15:20.297Z,14.70
2023-03-04T23:17:47.373Z,14.77
2023-03-04T23:20:17.718Z,14.10
2023-03-04T23:22:45.823Z,13.85
2023-03-04T23:25:13.566Z,16.33
2023-03-04T23:27:42.467Z,14.32
2023-03-04T23:30:16.901Z,16.77
2023-03-04T23:32:44.842Z,15.15
2023-03-04T23:35:12.035Z,15.80
2023-03-04T23:37:39.061Z,15.25
2023-03-04T23:40:06.315Z,14.80
2023-03-04T23:42:33.153Z,14.80
2023-03-04T23:45:00.054Z,16.52
2023-03-04T23:47:26.822Z,17.27
2023-03-04T23:49:53.657Z,15.07
2023-03-04T23:52:20.456Z,18.40
2023-03-04T23:54:47.222Z,14.85
2023-03-04T23:57:14.051Z,18.73
2023-03-04T23:59:40.928Z,14.93
